sensor_id;sensor_type;location;lat;lon;timestamp;temperature;humidity
22607;DHT22;11470;20.968;105.834;2023-05-29T00:02:45;29.00;99.90
22607;DHT22;11470;20.968;105.834;2023-05-29T00:07:50;29.40;99.90
22607;DHT22;11470;20.968;105.834;2023-05-29T00:12:57;29.50;99.90
22607;DHT22;11470;20.968;105.834;2023-05-29T00:18:02;29.60;99.90
22607;DHT22;11470;20.968;105.834;2023-05-29T00:23:08;29.80;99.90
22607;DHT22;11470;20.968;105.834;2023-05-29T00:28:14;30.00;99.90
22607;DHT22;11470;20.968;105.834;2023-05-29T00:33:20;30.80;99.90
22607;DHT22;11470;20.968;105.834;2023-05-29T00:38:25;31.50;99.90
22607;DHT22;11470;20.968;105.834;2023-05-29T00:43:31;32.30;99.90
22607;DHT22;11470;20.968;105.834;2023-05-29T00:48:39;32.30;99.90
22607;DHT22;11470;20.968;105.834;2023-05-29T00:53:46;32.10;99.90
22607;DHT22;11470;20.968;105.834;2023-05-29T00:58:56;32.50;99.90
22607;DHT22;11470;20.968;105.834;2023-05-29T01:04:03;32.40;99.90
22607;DHT22;11470;20.968;105.834;2023-05-29T01:09:17;32.20;99.90
22607;DHT22;11470;20.968;105.834;2023-05-29T01:15:09;32.80;99.90
22607;DHT22;11470;20.968;105.834;2023-05-29T01:31:23;34.30;99.90
22607;DHT22;11470;20.968;105.834;2023-05-29T01:36:32;34.90;99.90
22607;DHT22;11470;20.968;105.834;2023-05-29T01:41:38;35.00;99.90
22607;DHT22;11470;20.968;105.834;2023-05-29T01:46:44;34.20;99.90
22607;DHT22;11470;20.968;105.834;2023-05-29T01:51:50;34.00;99.90
22607;DHT22;11470;20.968;105.834;2023-05-29T01:56:55;34.40;99.90
22607;DHT22;11470;20.968;105.834;2023-05-29T02:02:08;34.70;99.90
22607;DHT22;11470;20.968;105.834;2023-05-29T02:07:14;35.00;99.90
22607;DHT22;11470;20.968;105.834;2023-05-29T02:12:20;35.20;99.90
22607;DHT22;11470;20.968;105.834;2023-05-29T02:17:25;34.80;99.90
22607;DHT22;11470;20.968;105.834;2023-05-29T02:22:32;34.20;99.90
22607;DHT22;11470;20.968;105.834;2023-05-29T02:27:36;34.00;99.90
22607;DHT22;11470;20.968;105.834;2023-05-29T02:32:42;34.00;99.90
22607;DHT22;11470;20.968;105.834;2023-05-29T02:37:47;33.70;99.90
22607;DHT22;11470;20.968;105.834;2023-05-29T02:42:54;33.60;99.90
22607;DHT22;11470;20.968;105.834;2023-05-29T02:47:59;33.70;99.90
22607;DHT22;11470;20.968;105.834;2023-05-29T02:53:05;33.90;99.90
22607;DHT22;11470;20.968;105.834;2023-05-29T02:58:10;33.70;99.90
22607;DHT22;11470;20.968;105.834;2023-05-29T03:03:23;33.30;99.90
22607;DHT22;11470;20.968;105.834;2023-05-29T03:08:34;33.30;99.90
22607;DHT22;11470;20.968;105.834;2023-05-29T03:13:40;33.60;99.90
22607;DHT22;11470;20.968;105.834;2023-05-29T03:18:46;34.60;99.90
22607;DHT22;11470;20.968;105.834;2023-05-29T03:23:55;35.10;99.90
22607;DHT22;11470;20.968;105.834;2023-05-29T03:29:00;35.80;99.90
22607;DHT22;11470;20.968;105.834;2023-05-29T03:34:07;35.30;99.90
22607;DHT22;11470;20.968;105.834;2023-05-29T03:39:23;35.20;99.90
22607;DHT22;11470;20.968;105.834;2023-05-29T03:44:33;36.10;99.90
22607;DHT22;11470;20.968;105.834;2023-05-29T03:49:46;36.50;99.90
22607;DHT22;11470;20.968;105.834;2023-05-29T03:54:53;36.60;99.90
22607;DHT22;11470;20.968;105.834;2023-05-29T03:59:59;36.10;99.90
22607;DHT22;11470;20.968;105.834;2023-05-29T04:05:15;35.30;99.90
22607;DHT22;11470;20.968;105.834;2023-05-29T04:10:21;34.90;99.90
22607;DHT22;11470;20.968;105.834;2023-05-29T04:15:28;34.80;99.90
22607;DHT22;11470;20.968;105.834;2023-05-29T04:20:34;34.40;99.90
22607;DHT22;11470;20.968;105.834;2023-05-29T04:25:40;34.30;99.90
22607;DHT22;11470;20.968;105.834;2023-05-29T04:30:46;34.80;99.90
22607;DHT22;11470;20.968;105.834;2023-05-29T04:35:54;34.80;99.90
22607;DHT22;11470;20.968;105.834;2023-05-29T04:41:00;34.80;99.90
22607;DHT22;11470;20.968;105.834;2023-05-29T04:46:06;35.10;99.90
22607;DHT22;11470;20.968;105.834;2023-05-29T04:51:15;36.20;99.90
22607;DHT22;11470;20.968;105.834;2023-05-29T04:56:22;37.80;97.50
22607;DHT22;11470;20.968;105.834;2023-05-29T05:01:27;39.00;93.70
22607;DHT22;11470;20.968;105.834;2023-05-29T05:06:34;38.70;92.00
22607;DHT22;11470;20.968;105.834;2023-05-29T05:11:39;38.50;91.90
22607;DHT22;11470;20.968;105.834;2023-05-29T05:16:48;39.50;88.40
22607;DHT22;11470;20.968;105.834;2023-05-29T05:21:54;40.90;81.10
22607;DHT22;11470;20.968;105.834;2023-05-29T05:27:09;39.90;82.10
22607;DHT22;11470;20.968;105.834;2023-05-29T05:32:18;40.70;79.70
22607;DHT22;11470;20.968;105.834;2023-05-29T05:37:31;42.00;74.90
22607;DHT22;11470;20.968;105.834;2023-05-29T05:42:40;43.40;68.00
22607;DHT22;11470;20.968;105.834;2023-05-29T05:47:49;42.20;69.40
22607;DHT22;11470;20.968;105.834;2023-05-29T05:52:59;41.20;73.90
22607;DHT22;11470;20.968;105.834;2023-05-29T05:58:04;42.10;71.00
22607;DHT22;11470;20.968;105.834;2023-05-29T06:03:10;43.40;68.40
22607;DHT22;11470;20.968;105.834;2023-05-29T06:08:36;45.20;61.90
22607;DHT22;11470;20.968;105.834;2023-05-29T06:13:48;45.60;58.30
22607;DHT22;11470;20.968;105.834;2023-05-29T06:18:58;45.90;57.90
22607;DHT22;11470;20.968;105.834;2023-05-29T06:24:06;45.00;57.00
22607;DHT22;11470;20.968;105.834;2023-05-29T06:29:12;44.10;63.70
22607;DHT22;11470;20.968;105.834;2023-05-29T06:34:17;42.80;64.20
22607;DHT22;11470;20.968;105.834;2023-05-29T06:39:23;41.10;69.00
22607;DHT22;11470;20.968;105.834;2023-05-29T06:44:30;42.60;63.70
22607;DHT22;11470;20.968;105.834;2023-05-29T06:49:36;42.60;65.90
22607;DHT22;11470;20.968;105.834;2023-05-29T06:54:42;44.40;58.60
22607;DHT22;11470;20.968;105.834;2023-05-29T06:59:48;46.20;55.00
22607;DHT22;11470;20.968;105.834;2023-05-29T07:04:54;46.20;58.90
22607;DHT22;11470;20.968;105.834;2023-05-29T07:10:01;47.40;57.40
22607;DHT22;11470;20.968;105.834;2023-05-29T07:15:07;47.50;54.70
22607;DHT22;11470;20.968;105.834;2023-05-29T07:20:23;47.70;56.30
22607;DHT22;11470;20.968;105.834;2023-05-29T07:25:49;47.90;55.40
22607;DHT22;11470;20.968;105.834;2023-05-29T07:30:59;47.80;53.50
22607;DHT22;11470;20.968;105.834;2023-05-29T07:36:15;45.60;55.30
22607;DHT22;11470;20.968;105.834;2023-05-29T07:41:24;44.50;59.70
22607;DHT22;11470;20.968;105.834;2023-05-29T07:46:34;45.00;58.60
22607;DHT22;11470;20.968;105.834;2023-05-29T07:52:04;45.90;57.50
22607;DHT22;11470;20.968;105.834;2023-05-29T07:57:11;46.10;57.70
22607;DHT22;11470;20.968;105.834;2023-05-29T08:02:18;46.10;55.60
22607;DHT22;11470;20.968;105.834;2023-05-29T08:07:50;46.30;55.70
22607;DHT22;11470;20.968;105.834;2023-05-29T08:12:56;46.00;54.60
22607;DHT22;11470;20.968;105.834;2023-05-29T08:18:02;44.80;57.70
22607;DHT22;11470;20.968;105.834;2023-05-29T08:23:11;44.40;57.90
22607;DHT22;11470;20.968;105.834;2023-05-29T08:28:17;45.40;58.30
22607;DHT22;11470;20.968;105.834;2023-05-29T08:33:23;45.40;53.20
22607;DHT22;11470;20.968;105.834;2023-05-29T08:38:31;43.80;59.80
22607;DHT22;11470;20.968;105.834;2023-05-29T08:43:39;42.20;60.50
22607;DHT22;11470;20.968;105.834;2023-05-29T08:48:49;40.70;65.40
22607;DHT22;11470;20.968;105.834;2023-05-29T08:54:04;39.50;68.20
22607;DHT22;11470;20.968;105.834;2023-05-29T08:59:14;38.70;71.10
22607;DHT22;11470;20.968;105.834;2023-05-29T09:04:22;38.50;73.70
22607;DHT22;11470;20.968;105.834;2023-05-29T09:09:31;38.00;74.10
22607;DHT22;11470;20.968;105.834;2023-05-29T09:14:38;37.70;76.70
22607;DHT22;11470;20.968;105.834;2023-05-29T09:19:45;37.40;75.80
22607;DHT22;11470;20.968;105.834;2023-05-29T09:24:54;37.20;78.00
22607;DHT22;11470;20.968;105.834;2023-05-29T09:30:00;37.00;80.70
22607;DHT22;11470;20.968;105.834;2023-05-29T09:35:07;36.90;82.40
22607;DHT22;11470;20.968;105.834;2023-05-29T09:40:14;36.70;81.70
22607;DHT22;11470;20.968;105.834;2023-05-29T09:45:21;36.50;82.70
22607;DHT22;11470;20.968;105.834;2023-05-29T09:50:27;36.20;83.90
22607;DHT22;11470;20.968;105.834;2023-05-29T09:55:35;35.90;88.40
22607;DHT22;11470;20.968;105.834;2023-05-29T10:00:42;35.60;89.60
22607;DHT22;11470;20.968;105.834;2023-05-29T10:05:50;35.30;89.90
22607;DHT22;11470;20.968;105.834;2023-05-29T10:11:00;35.20;90.70
22607;DHT22;11470;20.968;105.834;2023-05-29T10:16:14;35.10;91.70
22607;DHT22;11470;20.968;105.834;2023-05-29T10:21:21;34.90;91.80
22607;DHT22;11470;20.968;105.834;2023-05-29T10:26:28;34.80;92.50
22607;DHT22;11470;20.968;105.834;2023-05-29T10:37:29;34.50;97.10
22607;DHT22;11470;20.968;105.834;2023-05-29T10:42:49;34.20;98.40
22607;DHT22;11470;20.968;105.834;2023-05-29T10:53:17;33.50;99.90
22607;DHT22;11470;20.968;105.834;2023-05-29T10:58:24;33.30;99.90
22607;DHT22;11470;20.968;105.834;2023-05-29T11:03:33;33.00;99.90
22607;DHT22;11470;20.968;105.834;2023-05-29T11:08:44;32.90;99.90
22607;DHT22;11470;20.968;105.834;2023-05-29T11:13:53;32.80;99.90
22607;DHT22;11470;20.968;105.834;2023-05-29T11:19:08;32.60;99.90
22607;DHT22;11470;20.968;105.834;2023-05-29T11:24:23;32.40;99.90
22607;DHT22;11470;20.968;105.834;2023-05-29T11:29:29;32.30;99.90
22607;DHT22;11470;20.968;105.834;2023-05-29T11:34:38;32.20;99.90
22607;DHT22;11470;20.968;105.834;2023-05-29T11:39:46;32.10;99.90
22607;DHT22;11470;20.968;105.834;2023-05-29T11:44:51;32.00;99.90
22607;DHT22;11470;20.968;105.834;2023-05-29T11:49:58;31.90;99.90
22607;DHT22;11470;20.968;105.834;2023-05-29T11:55:07;31.80;99.90
22607;DHT22;11470;20.968;105.834;2023-05-29T12:00:17;31.80;99.90
22607;DHT22;11470;20.968;105.834;2023-05-29T12:05:26;31.70;99.90
22607;DHT22;11470;20.968;105.834;2023-05-29T12:10:35;31.80;99.90
22607;DHT22;11470;20.968;105.834;2023-05-29T12:15:44;31.90;99.90
22607;DHT22;11470;20.968;105.834;2023-05-29T12:20:51;32.00;99.90
22607;DHT22;11470;20.968;105.834;2023-05-29T12:26:01;31.90;99.90
22607;DHT22;11470;20.968;105.834;2023-05-29T12:31:13;31.80;99.90
22607;DHT22;11470;20.968;105.834;2023-05-29T12:36:26;31.60;99.90
22607;DHT22;11470;20.968;105.834;2023-05-29T12:41:34;31.60;99.90
22607;DHT22;11470;20.968;105.834;2023-05-29T12:46:42;31.50;99.90
22607;DHT22;11470;20.968;105.834;2023-05-29T12:51:49;31.40;99.90
22607;DHT22;11470;20.968;105.834;2023-05-29T12:56:54;31.40;99.90
22607;DHT22;11470;20.968;105.834;2023-05-29T13:02:01;31.40;99.90
22607;DHT22;11470;20.968;105.834;2023-05-29T13:07:06;31.60;99.90
22607;DHT22;11470;20.968;105.834;2023-05-29T13:12:13;31.50;99.90
22607;DHT22;11470;20.968;105.834;2023-05-29T13:17:18;31.60;99.90
22607;DHT22;11470;20.968;105.834;2023-05-29T13:22:24;31.60;99.90
22607;DHT22;11470;20.968;105.834;2023-05-29T13:27:36;31.60;99.90
22607;DHT22;11470;20.968;105.834;2023-05-29T13:32:43;31.40;99.90
22607;DHT22;11470;20.968;105.834;2023-05-29T13:37:49;31.30;99.90
22607;DHT22;11470;20.968;105.834;2023-05-29T13:42:55;31.30;99.90
22607;DHT22;11470;20.968;105.834;2023-05-29T13:48:01;31.30;99.90
22607;DHT22;11470;20.968;105.834;2023-05-29T13:53:07;31.30;99.90
22607;DHT22;11470;20.968;105.834;2023-05-29T13:58:12;31.20;99.90
22607;DHT22;11470;20.968;105.834;2023-05-29T14:03:18;31.10;99.90
22607;DHT22;11470;20.968;105.834;2023-05-29T14:08:26;31.00;99.90
22607;DHT22;11470;20.968;105.834;2023-05-29T14:13:32;31.00;99.90
22607;DHT22;11470;20.968;105.834;2023-05-29T14:18:40;31.00;99.90
22607;DHT22;11470;20.968;105.834;2023-05-29T14:23:47;30.90;99.90
22607;DHT22;11470;20.968;105.834;2023-05-29T14:28:52;30.70;99.90
22607;DHT22;11470;20.968;105.834;2023-05-29T14:34:16;30.50;99.90
22607;DHT22;11470;20.968;105.834;2023-05-29T14:39:21;30.50;99.90
22607;DHT22;11470;20.968;105.834;2023-05-29T14:44:28;30.50;99.90
22607;DHT22;11470;20.968;105.834;2023-05-29T14:49:33;30.30;99.90
22607;DHT22;11470;20.968;105.834;2023-05-29T14:54:40;30.10;99.90
22607;DHT22;11470;20.968;105.834;2023-05-29T14:59:46;30.20;99.90
22607;DHT22;11470;20.968;105.834;2023-05-29T15:04:52;30.20;99.90
22607;DHT22;11470;20.968;105.834;2023-05-29T15:10:01;30.10;99.90
22607;DHT22;11470;20.968;105.834;2023-05-29T15:15:09;30.20;99.90
22607;DHT22;11470;20.968;105.834;2023-05-29T15:20:22;30.20;99.90
22607;DHT22;11470;20.968;105.834;2023-05-29T15:25:49;30.20;99.90
22607;DHT22;11470;20.968;105.834;2023-05-29T15:30:55;30.00;99.90
22607;DHT22;11470;20.968;105.834;2023-05-29T15:36:00;30.10;99.90
22607;DHT22;11470;20.968;105.834;2023-05-29T15:41:08;30.00;99.90
22607;DHT22;11470;20.968;105.834;2023-05-29T15:46:14;30.00;99.90
22607;DHT22;11470;20.968;105.834;2023-05-29T15:51:22;30.00;99.90
22607;DHT22;11470;20.968;105.834;2023-05-29T15:56:40;30.00;99.90
22607;DHT22;11470;20.968;105.834;2023-05-29T16:01:47;29.70;99.90
22607;DHT22;11470;20.968;105.834;2023-05-29T16:06:53;29.80;99.90
22607;DHT22;11470;20.968;105.834;2023-05-29T16:11:58;29.70;99.90
22607;DHT22;11470;20.968;105.834;2023-05-29T16:17:04;29.60;99.90
22607;DHT22;11470;20.968;105.834;2023-05-29T16:22:11;29.50;99.90
22607;DHT22;11470;20.968;105.834;2023-05-29T16:27:16;29.60;99.90
22607;DHT22;11470;20.968;105.834;2023-05-29T16:32:23;29.50;99.90
22607;DHT22;11470;20.968;105.834;2023-05-29T16:37:30;29.40;99.90
22607;DHT22;11470;20.968;105.834;2023-05-29T16:42:39;29.20;99.90
22607;DHT22;11470;20.968;105.834;2023-05-29T16:47:45;29.20;99.90
22607;DHT22;11470;20.968;105.834;2023-05-29T16:52:53;29.10;99.90
22607;DHT22;11470;20.968;105.834;2023-05-29T16:58:01;29.10;99.90
22607;DHT22;11470;20.968;105.834;2023-05-29T17:03:07;29.00;99.90
22607;DHT22;11470;20.968;105.834;2023-05-29T17:08:12;29.00;99.90
22607;DHT22;11470;20.968;105.834;2023-05-29T17:13:18;28.80;99.90
22607;DHT22;11470;20.968;105.834;2023-05-29T17:18:23;28.70;99.90
22607;DHT22;11470;20.968;105.834;2023-05-29T17:23:31;28.70;99.90
22607;DHT22;11470;20.968;105.834;2023-05-29T17:28:37;28.60;99.90
22607;DHT22;11470;20.968;105.834;2023-05-29T17:33:43;28.80;99.90
22607;DHT22;11470;20.968;105.834;2023-05-29T17:38:48;28.80;99.90
22607;DHT22;11470;20.968;105.834;2023-05-29T17:43:57;28.90;99.90
22607;DHT22;11470;20.968;105.834;2023-05-29T17:49:09;28.70;99.90
22607;DHT22;11470;20.968;105.834;2023-05-29T17:54:14;28.70;99.90
22607;DHT22;11470;20.968;105.834;2023-05-29T17:59:20;28.60;99.90
22607;DHT22;11470;20.968;105.834;2023-05-29T18:04:25;28.40;99.90
22607;DHT22;11470;20.968;105.834;2023-05-29T18:09:31;28.40;99.90
22607;DHT22;11470;20.968;105.834;2023-05-29T18:14:37;28.40;99.90
22607;DHT22;11470;20.968;105.834;2023-05-29T18:19:43;28.40;99.90
22607;DHT22;11470;20.968;105.834;2023-05-29T18:24:49;28.30;99.90
22607;DHT22;11470;20.968;105.834;2023-05-29T18:29:57;28.30;99.90
22607;DHT22;11470;20.968;105.834;2023-05-29T18:35:08;28.30;99.90
22607;DHT22;11470;20.968;105.834;2023-05-29T18:40:16;28.30;99.90
22607;DHT22;11470;20.968;105.834;2023-05-29T18:45:23;28.30;99.90
22607;DHT22;11470;20.968;105.834;2023-05-29T18:50:28;28.30;99.90
22607;DHT22;11470;20.968;105.834;2023-05-29T18:55:34;28.20;99.90
22607;DHT22;11470;20.968;105.834;2023-05-29T19:00:39;28.20;99.90
22607;DHT22;11470;20.968;105.834;2023-05-29T19:05:45;28.10;99.90
22607;DHT22;11470;20.968;105.834;2023-05-29T19:10:52;28.10;99.90
22607;DHT22;11470;20.968;105.834;2023-05-29T19:15:59;28.10;99.90
22607;DHT22;11470;20.968;105.834;2023-05-29T19:21:07;28.10;99.90
22607;DHT22;11470;20.968;105.834;2023-05-29T19:26:13;28.10;99.90
22607;DHT22;11470;20.968;105.834;2023-05-29T19:31:18;28.00;99.90
22607;DHT22;11470;20.968;105.834;2023-05-29T19:36:24;28.00;99.90
22607;DHT22;11470;20.968;105.834;2023-05-29T19:41:30;28.00;99.90
22607;DHT22;11470;20.968;105.834;2023-05-29T19:46:36;28.00;99.90
22607;DHT22;11470;20.968;105.834;2023-05-29T19:51:41;28.00;99.90
22607;DHT22;11470;20.968;105.834;2023-05-29T19:56:47;28.00;99.90
22607;DHT22;11470;20.968;105.834;2023-05-29T20:01:53;28.00;99.90
22607;DHT22;11470;20.968;105.834;2023-05-29T20:06:59;27.90;99.90
22607;DHT22;11470;20.968;105.834;2023-05-29T20:12:07;27.90;99.90
22607;DHT22;11470;20.968;105.834;2023-05-29T20:17:15;27.90;99.90
22607;DHT22;11470;20.968;105.834;2023-05-29T20:22:21;27.90;99.90
22607;DHT22;11470;20.968;105.834;2023-05-29T20:27:26;27.80;99.90
22607;DHT22;11470;20.968;105.834;2023-05-29T20:32:31;27.80;99.90
22607;DHT22;11470;20.968;105.834;2023-05-29T20:37:37;27.80;99.90
22607;DHT22;11470;20.968;105.834;2023-05-29T20:42:46;27.80;99.90
22607;DHT22;11470;20.968;105.834;2023-05-29T20:47:51;27.80;99.90
22607;DHT22;11470;20.968;105.834;2023-05-29T20:52:57;27.80;99.90
22607;DHT22;11470;20.968;105.834;2023-05-29T20:58:02;27.70;99.90
22607;DHT22;11470;20.968;105.834;2023-05-29T21:03:09;27.70;99.90
22607;DHT22;11470;20.968;105.834;2023-05-29T21:08:16;27.70;99.90
22607;DHT22;11470;20.968;105.834;2023-05-29T21:13:22;27.70;99.90
22607;DHT22;11470;20.968;105.834;2023-05-29T21:18:28;27.60;99.90
22607;DHT22;11470;20.968;105.834;2023-05-29T21:23:33;27.60;99.90
22607;DHT22;11470;20.968;105.834;2023-05-29T21:28:42;27.60;99.90
22607;DHT22;11470;20.968;105.834;2023-05-29T21:33:49;27.70;99.90
22607;DHT22;11470;20.968;105.834;2023-05-29T21:38:54;27.70;99.90
22607;DHT22;11470;20.968;105.834;2023-05-29T21:44:00;27.70;99.90
22607;DHT22;11470;20.968;105.834;2023-05-29T21:49:05;27.60;99.90
22607;DHT22;11470;20.968;105.834;2023-05-29T21:54:11;27.50;99.90
22607;DHT22;11470;20.968;105.834;2023-05-29T21:59:19;27.50;99.90
22607;DHT22;11470;20.968;105.834;2023-05-29T22:04:25;27.50;99.90
22607;DHT22;11470;20.968;105.834;2023-05-29T22:09:30;27.50;99.90
22607;DHT22;11470;20.968;105.834;2023-05-29T22:14:39;27.60;99.90
22607;DHT22;11470;20.968;105.834;2023-05-29T22:19:45;27.60;99.90
22607;DHT22;11470;20.968;105.834;2023-05-29T22:24:50;27.60;99.90
22607;DHT22;11470;20.968;105.834;2023-05-29T22:29:56;27.60;99.90
22607;DHT22;11470;20.968;105.834;2023-05-29T22:35:02;27.70;99.90
22607;DHT22;11470;20.968;105.834;2023-05-29T22:40:07;27.60;99.90
22607;DHT22;11470;20.968;105.834;2023-05-29T22:45:18;27.60;99.90
22607;DHT22;11470;20.968;105.834;2023-05-29T22:50:24;27.60;99.90
22607;DHT22;11470;20.968;105.834;2023-05-29T22:55:29;27.60;99.90
22607;DHT22;11470;20.968;105.834;2023-05-29T23:00:35;27.70;99.90
22607;DHT22;11470;20.968;105.834;2023-05-29T23:05:42;27.90;99.90
22607;DHT22;11470;20.968;105.834;2023-05-29T23:10:48;28.00;99.90
22607;DHT22;11470;20.968;105.834;2023-05-29T23:15:54;28.10;99.90
22607;DHT22;11470;20.968;105.834;2023-05-29T23:21:00;28.20;99.90
22607;DHT22;11470;20.968;105.834;2023-05-29T23:26:05;28.40;99.90
22607;DHT22;11470;20.968;105.834;2023-05-29T23:31:10;28.60;99.90
22607;DHT22;11470;20.968;105.834;2023-05-29T23:36:16;28.70;99.90
22607;DHT22;11470;20.968;105.834;2023-05-29T23:41:22;28.70;99.90
22607;DHT22;11470;20.968;105.834;2023-05-29T23:46:27;28.80;99.90
22607;DHT22;11470;20.968;105.834;2023-05-29T23:51:34;28.80;99.90
22607;DHT22;11470;20.968;105.834;2023-05-29T23:56:39;28.90;99.90
